Time;durP1;ratioP1;P1;durP2;ratioP2;P2;SDS_P1;SDS_P2;PMS_P1;PMS_P2;Temp;Humidity;BMP_temperature;BMP_pressure;BME280_temperature;BME280_humidity;BME280_pressure;Samples;Min_cycle;Max_cycle;Signal;HPM_P1;HPM_P2
2021/07/05 00:00:15;;;;;;;;;;;27.30;53.70;;;;;;5132340;28;20264;-56
2021/07/05 00:02:42;;;;;;;;;;;27.20;53.70;;;;;;5130035;28;19924;-57
2021/07/05 00:05:11;;;;;;;;;;;27.20;53.70;;;;;;5122199;28;20362;-57
2021/07/05 00:07:38;;;;;;;;;;;27.20;53.70;;;;;;5125359;28;20321;-57
2021/07/05 00:10:06;;;;;;;;;;;27.20;53.70;;;;;;5133010;28;20329;-57
2021/07/05 00:12:33;;;;;;;;;;;27.20;53.70;;;;;;5133497;27;19923;-58
2021/07/05 00:15:00;;;;;;;;;;;27.20;53.80;;;;;;5115558;27;19962;-58
2021/07/05 00:17:27;;;;;;;;;;;27.20;53.80;;;;;;5130734;27;19946;-58
2021/07/05 00:19:54;;;;;;;;;;;27.20;53.80;;;;;;5121766;27;19930;-57
2021/07/05 00:22:21;;;;;;;;;;;27.20;53.80;;;;;;5134627;27;19923;-58
2021/07/05 00:24:48;;;;;;;;;;;27.20;53.80;;;;;;5134404;27;19934;-58
2021/07/05 00:27:15;;;;;;;;;;;27.20;53.90;;;;;;5134395;27;19923;-58
2021/07/05 00:29:42;;;;;;;;;;;27.20;53.80;;;;;;5134228;27;19931;-58
2021/07/05 00:32:09;;;;;;;;;;;27.20;53.80;;;;;;5133995;27;20367;-58
2021/07/05 00:34:36;;;;;;;;;;;27.20;53.90;;;;;;5134262;27;20034;-58
2021/07/05 00:37:04;;;;;;;;;;;27.20;53.90;;;;;;5134043;27;19924;-58
2021/07/05 00:39:31;;;;;;;;;;;27.20;53.90;;;;;;5135069;27;19923;-58
2021/07/05 00:41:58;;;;;;;;;;;27.20;53.90;;;;;;5135250;27;19965;-58
2021/07/05 00:44:25;;;;;;;;;;;27.20;53.90;;;;;;5133989;27;19972;-58
2021/07/05 00:46:52;;;;;;;;;;;27.20;53.90;;;;;;5135171;27;19976;-58
2021/07/05 00:49:19;;;;;;;;;;;27.20;53.90;;;;;;5133851;27;20319;-58
2021/07/05 00:51:46;;;;;;;;;;;27.20;53.90;;;;;;5134193;27;19923;-58
2021/07/05 00:54:13;;;;;;;;;;;27.20;53.90;;;;;;5121389;27;19972;-58
2021/07/05 00:56:41;;;;;;;;;;;27.20;53.90;;;;;;5130187;27;19923;-58
2021/07/05 00:59:08;;;;;;;;;;;27.20;53.90;;;;;;5135408;27;19931;-58
2021/07/05 01:01:36;;;;;;;;;;;27.20;53.90;;;;;;5124063;27;19985;-58
2021/07/05 01:04:03;;;;;;;;;;;27.20;54.00;;;;;;5117796;27;19969;-56
2021/07/05 01:06:30;;;;;;;;;;;27.20;54.00;;;;;;5125660;27;19946;-58
2021/07/05 01:08:57;;;;;;;;;;;27.20;54.00;;;;;;5134923;27;19930;-58
2021/07/05 01:11:24;;;;;;;;;;;27.20;54.60;;;;;;5135745;27;20399;-58
2021/07/05 01:13:52;;;;;;;;;;;27.20;54.00;;;;;;5135718;27;19923;-58
2021/07/05 01:16:19;;;;;;;;;;;27.20;54.00;;;;;;5131896;27;19980;-58
2021/07/05 01:18:46;;;;;;;;;;;27.20;54.00;;;;;;5133469;27;19973;-58
2021/07/05 01:21:13;;;;;;;;;;;27.20;54.10;;;;;;5133507;27;19928;-58
2021/07/05 01:23:40;;;;;;;;;;;27.20;54.10;;;;;;5097302;27;19932;-58
2021/07/05 01:26:07;;;;;;;;;;;27.20;54.10;;;;;;5132791;27;19957;-58
2021/07/05 01:28:35;;;;;;;;;;;27.20;54.10;;;;;;5134305;27;19923;-58
2021/07/05 01:31:02;;;;;;;;;;;27.20;54.10;;;;;;5133561;27;19927;-58
2021/07/05 01:33:29;;;;;;;;;;;27.20;54.10;;;;;;5133399;27;20348;-58
2021/07/05 01:35:56;;;;;;;;;;;27.20;54.10;;;;;;5116530;27;19929;-57
2021/07/05 01:38:23;;;;;;;;;;;27.20;54.10;;;;;;5132548;27;19974;-58
2021/07/05 01:40:55;;;;;;;;;;;27.20;54.10;;;;;;5133046;27;19923;-57
2021/07/05 01:43:24;;;;;;;;;;;27.20;54.10;;;;;;5132532;27;19923;-58
2021/07/05 01:45:51;;;;;;;;;;;27.20;54.10;;;;;;5131743;27;19969;-58
2021/07/05 01:48:18;;;;;;;;;;;27.20;54.10;;;;;;5116282;27;19923;-57
2021/07/05 01:50:45;;;;;;;;;;;27.20;54.10;;;;;;5096339;28;20367;-58
2021/07/05 01:53:12;;;;;;;;;;;27.20;54.10;;;;;;5127396;27;19968;-57
2021/07/05 01:55:39;;;;;;;;;;;27.20;54.10;;;;;;5131645;27;20298;-57
2021/07/05 01:58:07;;;;;;;;;;;27.20;54.10;;;;;;5123859;27;19924;-57
2021/07/05 02:00:36;;;;;;;;;;;27.20;54.20;;;;;;5124189;27;19952;-58
2021/07/05 02:03:04;;;;;;;;;;;27.20;54.20;;;;;;5132394;27;20025;-57
2021/07/05 02:05:31;;;;;;;;;;;27.20;54.20;;;;;;5131372;27;20322;-57
2021/07/05 02:07:58;;;;;;;;;;;27.20;54.20;;;;;;5132016;27;19924;-57
2021/07/05 02:10:30;;;;;;;;;;;27.10;54.10;;;;;;5133315;27;19923;-57
2021/07/05 02:12:58;;;;;;;;;;;27.10;54.10;;;;;;5134540;27;19923;-57
2021/07/05 02:15:26;;;;;;;;;;;27.10;54.10;;;;;;5133601;27;19928;-57
2021/07/05 02:17:53;;;;;;;;;;;27.10;54.10;;;;;;5131032;27;20010;-57
2021/07/05 02:20:22;;;;;;;;;;;27.10;54.10;;;;;;5131619;27;19924;-57
2021/07/05 02:22:51;;;;;;;;;;;27.10;54.10;;;;;;5129477;27;19936;-57
2021/07/05 02:25:19;;;;;;;;;;;27.10;54.10;;;;;;5132866;27;19930;-58
2021/07/05 02:27:47;;;;;;;;;;;27.10;54.10;;;;;;5130692;27;19946;-57
2021/07/05 02:30:16;;;;;;;;;;;27.10;54.10;;;;;;5131805;27;19939;-57
2021/07/05 02:32:44;;;;;;;;;;;27.10;54.10;;;;;;5133225;27;19923;-57
2021/07/05 02:35:14;;;;;;;;;;;27.10;54.10;;;;;;5130470;27;19930;-57
2021/07/05 02:37:41;;;;;;;;;;;27.10;54.10;;;;;;5113627;27;19930;-58
2021/07/05 02:40:10;;;;;;;;;;;27.10;54.20;;;;;;5132029;27;20341;-58
2021/07/05 02:42:38;;;;;;;;;;;27.10;54.20;;;;;;5132029;27;19950;-58
2021/07/05 02:45:07;;;;;;;;;;;27.10;54.20;;;;;;5132190;27;19930;-58
2021/07/05 02:47:35;;;;;;;;;;;27.10;54.20;;;;;;5118091;27;19924;-57
2021/07/05 02:50:04;;;;;;;;;;;27.10;54.20;;;;;;5130681;27;20325;-57
2021/07/05 02:52:31;;;;;;;;;;;27.10;54.20;;;;;;5118092;27;19928;-57
2021/07/05 02:54:58;;;;;;;;;;;27.10;54.20;;;;;;5115864;27;19973;-57
2021/07/05 02:57:31;;;;;;;;;;;27.10;54.20;;;;;;5116036;27;19924;-57
2021/07/05 03:00:17;;;;;;;;;;;27.10;54.20;;;;;;5127184;27;19972;-58
2021/07/05 03:02:45;;;;;;;;;;;27.10;54.20;;;;;;5113868;27;20315;-57
2021/07/05 03:05:15;;;;;;;;;;;27.10;54.20;;;;;;5129870;27;19972;-58
2021/07/05 03:07:42;;;;;;;;;;;27.10;54.20;;;;;;5132567;27;19930;-58
2021/07/05 03:10:10;;;;;;;;;;;27.10;54.30;;;;;;5132505;27;19931;-57
2021/07/05 03:12:38;;;;;;;;;;;27.10;54.20;;;;;;5133487;27;19972;-58
2021/07/05 03:15:06;;;;;;;;;;;27.10;54.30;;;;;;5132608;27;20018;-58
2021/07/05 03:17:34;;;;;;;;;;;27.10;54.30;;;;;;5131104;28;19931;-58
2021/07/05 03:20:01;;;;;;;;;;;27.10;54.30;;;;;;5131246;28;19949;-58
2021/07/05 03:22:28;;;;;;;;;;;27.10;54.30;;;;;;5130884;28;19976;-58
2021/07/05 03:24:55;;;;;;;;;;;27.10;54.30;;;;;;5131508;28;19924;-58
2021/07/05 03:27:26;;;;;;;;;;;27.10;54.30;;;;;;5131118;28;19924;-58
2021/07/05 03:29:53;;;;;;;;;;;27.10;54.30;;;;;;5130234;28;20351;-58
2021/07/05 03:32:20;;;;;;;;;;;27.10;54.30;;;;;;5131132;28;19924;-57
2021/07/05 03:34:47;;;;;;;;;;;27.10;54.30;;;;;;5130815;28;19972;-58
2021/07/05 03:37:14;;;;;;;;;;;27.10;54.30;;;;;;5114759;28;20074;-58
2021/07/05 03:39:41;;;;;;;;;;;27.10;54.30;;;;;;5115991;28;19931;-58
2021/07/05 03:42:08;;;;;;;;;;;27.10;54.30;;;;;;5133353;28;19973;-58
2021/07/05 03:44:35;;;;;;;;;;;27.10;54.30;;;;;;5114021;28;20386;-58
2021/07/05 03:47:03;;;;;;;;;;;27.10;54.30;;;;;;5117221;27;19928;-58
2021/07/05 03:49:30;;;;;;;;;;;27.10;54.30;;;;;;5118170;27;19935;-58
2021/07/05 03:51:57;;;;;;;;;;;27.10;54.30;;;;;;5136779;27;20382;-58
2021/07/05 03:54:24;;;;;;;;;;;27.10;54.30;;;;;;5133562;27;20354;-58
2021/07/05 03:56:51;;;;;;;;;;;27.10;54.30;;;;;;5135943;27;19965;-58
2021/07/05 03:59:18;;;;;;;;;;;27.10;54.30;;;;;;5118749;27;20382;-58
2021/07/05 04:01:45;;;;;;;;;;;27.10;54.30;;;;;;5118825;27;19923;-57
2021/07/05 04:04:12;;;;;;;;;;;27.10;54.30;;;;;;5134915;27;19988;-58
2021/07/05 04:06:39;;;;;;;;;;;27.10;54.30;;;;;;5136082;27;19984;-58
2021/07/05 04:09:06;;;;;;;;;;;27.10;54.30;;;;;;5134701;27;19928;-58
2021/07/05 04:11:34;;;;;;;;;;;27.10;54.30;;;;;;5133757;27;19973;-58
2021/07/05 04:14:01;;;;;;;;;;;27.10;54.30;;;;;;5134910;27;19992;-58
2021/07/05 04:16:27;;;;;;;;;;;27.10;54.20;;;;;;5134610;27;19923;-58
2021/07/05 04:18:55;;;;;;;;;;;27.10;54.30;;;;;;5134637;27;19924;-58
2021/07/05 04:21:25;;;;;;;;;;;27.10;54.20;;;;;;5134438;27;19924;-58
2021/07/05 04:23:53;;;;;;;;;;;27.10;54.20;;;;;;5135520;27;19970;-58
2021/07/05 04:26:21;;;;;;;;;;;27.10;54.20;;;;;;5129869;27;19924;-58
2021/07/05 04:28:48;;;;;;;;;;;27.10;54.20;;;;;;5122254;27;19931;-58
2021/07/05 04:31:15;;;;;;;;;;;27.10;54.20;;;;;;5134240;27;19924;-59
2021/07/05 04:33:42;;;;;;;;;;;27.10;54.20;;;;;;5135053;27;19923;-58
2021/07/05 04:36:09;;;;;;;;;;;27.10;54.20;;;;;;5129020;27;19945;-58
2021/07/05 04:38:36;;;;;;;;;;;27.10;54.20;;;;;;5117638;27;19923;-58
2021/07/05 04:41:04;;;;;;;;;;;27.10;54.20;;;;;;5136556;27;19930;-58
2021/07/05 04:43:31;;;;;;;;;;;27.10;54.20;;;;;;5118023;27;19967;-58
2021/07/05 04:46:03;;;;;;;;;;;27.10;54.20;;;;;;5116917;27;19945;-58
2021/07/05 04:48:31;;;;;;;;;;;27.10;54.10;;;;;;5136061;27;19927;-58
2021/07/05 04:50:58;;;;;;;;;;;27.10;54.10;;;;;;5118425;27;19989;-58
2021/07/05 04:53:26;;;;;;;;;;;27.10;54.10;;;;;;5134067;27;19971;-58
2021/07/05 04:55:54;;;;;;;;;;;27.10;54.10;;;;;;5131996;27;19927;-58
2021/07/05 04:58:22;;;;;;;;;;;27.10;54.10;;;;;;5131533;27;21351;-58
2021/07/05 05:00:49;;;;;;;;;;;27.10;54.10;;;;;;5133596;27;20337;-58
2021/07/05 05:03:16;;;;;;;;;;;27.10;54.10;;;;;;5132147;27;19924;-58
2021/07/05 05:05:44;;;;;;;;;;;27.10;54.10;;;;;;5135045;27;19927;-58
2021/07/05 05:08:11;;;;;;;;;;;27.20;54.10;;;;;;5134527;27;19924;-58
2021/07/05 05:10:39;;;;;;;;;;;27.20;54.10;;;;;;5134672;27;19924;-58
2021/07/05 05:13:07;;;;;;;;;;;27.10;54.10;;;;;;5133431;27;19923;-58
2021/07/05 05:15:35;;;;;;;;;;;27.20;54.10;;;;;;5133612;27;20349;-58
2021/07/05 05:18:02;;;;;;;;;;;27.20;54.10;;;;;;5133311;27;19924;-58
2021/07/05 05:20:29;;;;;;;;;;;27.20;54.20;;;;;;5134663;27;19927;-58
2021/07/05 05:22:56;;;;;;;;;;;27.20;54.10;;;;;;5132919;27;19968;-58
2021/07/05 05:25:23;;;;;;;;;;;27.20;54.10;;;;;;5132921;27;19945;-59
2021/07/05 05:27:51;;;;;;;;;;;27.20;54.10;;;;;;5129390;27;19931;-59
2021/07/05 05:30:20;;;;;;;;;;;27.20;54.10;;;;;;5118312;27;20371;-59
2021/07/05 05:32:47;;;;;;;;;;;27.20;54.00;;;;;;5100136;27;20264;-58
2021/07/05 05:35:16;;;;;;;;;;;27.20;54.00;;;;;;5130981;27;19924;-58
2021/07/05 05:37:44;;;;;;;;;;;27.20;54.00;;;;;;5133127;27;20251;-58
2021/07/05 05:40:11;;;;;;;;;;;27.20;54.00;;;;;;5134449;27;20325;-58
2021/07/05 05:42:38;;;;;;;;;;;27.20;54.00;;;;;;5134183;27;20390;-59
2021/07/05 05:45:06;;;;;;;;;;;27.20;54.00;;;;;;5133013;27;19930;-59
2021/07/05 05:47:33;;;;;;;;;;;27.20;54.00;;;;;;5133258;27;19976;-57
2021/07/05 05:50:01;;;;;;;;;;;27.20;54.00;;;;;;5134065;27;19927;-58
2021/07/05 05:52:28;;;;;;;;;;;27.20;54.00;;;;;;5097255;28;19924;-58
2021/07/05 05:54:55;;;;;;;;;;;27.20;54.00;;;;;;5131051;27;19976;-59
2021/07/05 05:57:25;;;;;;;;;;;27.20;54.00;;;;;;5114182;27;19924;-60
2021/07/05 05:59:54;;;;;;;;;;;27.20;54.00;;;;;;5132228;27;19931;-59
2021/07/05 06:02:21;;;;;;;;;;;27.20;54.00;;;;;;5132408;27;20332;-59
2021/07/05 06:04:48;;;;;;;;;;;27.20;53.90;;;;;;5131893;27;19930;-59
2021/07/05 06:07:15;;;;;;;;;;;27.20;53.90;;;;;;5131941;27;19930;-59
2021/07/05 06:09:43;;;;;;;;;;;27.20;53.90;;;;;;5133194;27;19923;-60
2021/07/05 06:12:10;;;;;;;;;;;27.20;53.90;;;;;;5122814;27;20513;-57
2021/07/05 06:14:37;;;;;;;;;;;27.30;53.90;;;;;;5120124;27;19928;-59
2021/07/05 06:17:10;;;;;;;;;;;27.30;53.90;;;;;;5124359;27;19976;-58
2021/07/05 06:19:37;;;;;;;;;;;27.30;53.90;;;;;;5124671;27;19924;-59
2021/07/05 06:22:12;;;;;;;;;;;27.30;53.90;;;;;;5122534;27;19923;-59
2021/07/05 06:24:40;;;;;;;;;;;27.30;53.80;;;;;;5132923;27;19924;-59
2021/07/05 06:27:07;;;;;;;;;;;27.30;53.80;;;;;;5128275;27;19935;-60
2021/07/05 06:29:35;;;;;;;;;;;27.30;53.70;;;;;;5119583;27;19980;-58
2021/07/05 06:32:03;;;;;;;;;;;27.30;53.70;;;;;;5129241;27;19954;-58
2021/07/05 06:34:30;;;;;;;;;;;27.40;53.70;;;;;;5118253;27;19931;-59
2021/07/05 06:36:57;;;;;;;;;;;27.40;53.60;;;;;;5120166;27;19927;-59
2021/07/05 06:39:24;;;;;;;;;;;27.40;53.50;;;;;;5130529;27;19983;-59
2021/07/05 06:41:51;;;;;;;;;;;27.40;53.50;;;;;;5130722;27;19923;-59
2021/07/05 06:44:18;;;;;;;;;;;27.40;53.40;;;;;;5114839;28;19924;-59
2021/07/05 06:46:45;;;;;;;;;;;27.50;53.40;;;;;;5131739;27;19976;-58
2021/07/05 06:49:20;;;;;;;;;;;27.50;53.40;;;;;;5133812;27;19927;-59
2021/07/05 06:51:49;;;;;;;;;;;27.50;53.30;;;;;;5132011;27;20333;-58
2021/07/05 06:54:16;;;;;;;;;;;27.60;53.20;;;;;;5131428;27;19969;-59
2021/07/05 06:56:43;;;;;;;;;;;27.60;53.20;;;;;;5131690;27;20020;-59
2021/07/05 06:59:10;;;;;;;;;;;27.60;53.00;;;;;;5129759;27;19988;-59
2021/07/05 07:01:38;;;;;;;;;;;27.70;53.00;;;;;;5129539;27;19923;-59
2021/07/05 07:04:05;;;;;;;;;;;27.70;52.90;;;;;;5131142;27;19930;-59
2021/07/05 07:06:32;;;;;;;;;;;27.70;52.90;;;;;;5130123;27;19984;-59
2021/07/05 07:08:59;;;;;;;;;;;27.80;52.80;;;;;;5131028;27;19988;-59
2021/07/05 07:11:26;;;;;;;;;;;27.80;52.70;;;;;;5132039;27;20135;-58
2021/07/05 07:13:53;;;;;;;;;;;27.80;52.60;;;;;;5132163;27;19923;-58
2021/07/05 07:16:22;;;;;;;;;;;27.90;52.70;;;;;;5115287;28;20006;-58
2021/07/05 07:19:08;;;;;;;;;;;27.90;52.60;;;;;;5124618;28;19924;-58
2021/07/05 07:21:35;;;;;;;;;;;27.90;52.60;;;;;;5124920;27;19931;-58
2021/07/05 07:24:03;;;;;;;;;;;27.90;52.60;;;;;;5123082;28;19931;-58
2021/07/05 07:26:29;;;;;;;;;;;27.90;52.50;;;;;;5121630;28;19984;-58
2021/07/05 07:28:56;;;;;;;;;;;27.90;52.50;;;;;;5133513;28;20299;-58
2021/07/05 07:31:23;;;;;;;;;;;28.00;52.50;;;;;;5133209;28;19945;-59
2021/07/05 07:33:51;;;;;;;;;;;28.00;52.50;;;;;;5115094;28;19931;-58
2021/07/05 07:36:18;;;;;;;;;;;28.00;52.40;;;;;;5123358;28;19946;-59
2021/07/05 07:38:50;;;;;;;;;;;28.00;52.40;;;;;;5118490;28;20027;-59
2021/07/05 07:41:21;;;;;;;;;;;28.00;52.30;;;;;;5133359;28;20302;-59
2021/07/05 07:43:49;;;;;;;;;;;28.10;52.40;;;;;;5131544;28;19970;-59
2021/07/05 07:46:16;;;;;;;;;;;28.00;52.30;;;;;;5132557;28;19931;-59
2021/07/05 07:48:43;;;;;;;;;;;28.10;52.20;;;;;;5130756;28;19928;-59
2021/07/05 07:51:10;;;;;;;;;;;28.10;52.20;;;;;;5131867;28;19963;-58
2021/07/05 07:53:37;;;;;;;;;;;28.20;52.20;;;;;;5130322;28;19923;-58
2021/07/05 07:56:04;;;;;;;;;;;28.20;52.10;;;;;;5131190;28;19923;-58
2021/07/05 07:58:31;;;;;;;;;;;28.20;52.10;;;;;;5130913;28;19927;-59
2021/07/05 08:00:58;;;;;;;;;;;28.20;52.10;;;;;;5113818;28;19974;-59
2021/07/05 08:03:29;;;;;;;;;;;28.20;52.10;;;;;;5130514;28;19924;-58
2021/07/05 08:05:56;;;;;;;;;;;28.20;52.00;;;;;;5130677;28;19923;-59
2021/07/05 08:08:23;;;;;;;;;;;28.20;52.00;;;;;;5115187;28;19923;-58
2021/07/05 08:10:51;;;;;;;;;;;28.20;52.00;;;;;;5117154;28;19923;-59
2021/07/05 08:13:18;;;;;;;;;;;28.20;52.00;;;;;;5113396;28;19924;-59
2021/07/05 08:15:47;;;;;;;;;;;28.20;52.00;;;;;;5115153;28;20268;-59
2021/07/05 08:18:15;;;;;;;;;;;28.20;52.00;;;;;;5125538;28;20383;-59
2021/07/05 08:20:42;;;;;;;;;;;28.20;51.90;;;;;;5130442;28;19994;-59
2021/07/05 08:23:09;;;;;;;;;;;28.30;52.00;;;;;;5129800;28;19923;-59
2021/07/05 08:25:36;;;;;;;;;;;28.20;51.90;;;;;;5129138;28;19924;-60
2021/07/05 08:28:03;;;;;;;;;;;28.20;51.90;;;;;;5131434;28;19923;-60
2021/07/05 08:30:30;;;;;;;;;;;28.20;52.00;;;;;;5131193;28;19923;-58
2021/07/05 08:32:58;;;;;;;;;;;28.20;52.00;;;;;;5129342;27;19923;-58
2021/07/05 08:35:28;;;;;;;;;;;28.20;52.10;;;;;;5130380;27;19931;-58
2021/07/05 08:37:56;;;;;;;;;;;28.20;52.10;;;;;;5121745;27;19923;-58
2021/07/05 08:40:23;;;;;;;;;;;28.10;52.10;;;;;;5133909;27;19930;-58
2021/07/05 08:42:52;;;;;;;;;;;28.10;52.10;;;;;;5132583;27;19931;-58
2021/07/05 08:45:21;;;;;;;;;;;28.10;52.20;;;;;;5133520;27;19972;-59
2021/07/05 08:47:50;;;;;;;;;;;28.10;52.30;;;;;;5133721;27;19923;-59
2021/07/05 08:50:18;;;;;;;;;;;28.10;52.30;;;;;;5133491;27;20381;-59
2021/07/05 08:52:46;;;;;;;;;;;28.10;52.30;;;;;;5133781;27;20432;-58
2021/07/05 08:55:15;;;;;;;;;;;28.00;52.30;;;;;;5115411;27;20589;-59
2021/07/05 08:57:43;;;;;;;;;;;28.00;52.30;;;;;;5135031;27;20026;-58
2021/07/05 09:00:12;;;;;;;;;;;28.10;52.40;;;;;;5136139;27;19923;-59
2021/07/05 09:02:40;;;;;;;;;;;28.10;52.40;;;;;;5128205;27;20336;-59
2021/07/05 09:05:08;;;;;;;;;;;28.10;52.40;;;;;;5118177;27;20014;-59
2021/07/05 09:07:55;;;;;;;;;;;28.10;52.30;;;;;;5136194;27;19927;-59
2021/07/05 09:10:23;;;;;;;;;;;28.00;52.30;;;;;;5104005;27;20033;-59
2021/07/05 09:13:08;;;;;;;;;;;28.10;52.20;;;;;;5135965;27;19930;-59
2021/07/05 09:15:37;;;;;;;;;;;28.20;52.20;;;;;;5115788;28;19972;-59
2021/07/05 09:18:22;;;;;;;;;;;28.20;52.10;;;;;;5133642;27;20291;-59
2021/07/05 09:20:50;;;;;;;;;;;28.20;52.10;;;;;;5134059;27;19923;-59
2021/07/05 09:23:17;;;;;;;;;;;28.20;52.00;;;;;;5134415;27;19967;-59
2021/07/05 09:25:46;;;;;;;;;;;28.30;52.00;;;;;;5133640;27;19927;-59
2021/07/05 09:28:15;;;;;;;;;;;28.30;52.00;;;;;;5133857;27;19923;-59
2021/07/05 09:30:43;;;;;;;;;;;28.30;51.90;;;;;;5133280;27;19935;-59
2021/07/05 09:33:13;;;;;;;;;;;28.30;51.80;;;;;;5133796;27;19931;-59
2021/07/05 09:35:40;;;;;;;;;;;28.30;51.80;;;;;;5111642;28;19928;-59
2021/07/05 09:38:07;;;;;;;;;;;28.30;51.80;;;;;;5132098;27;19928;-59
2021/07/05 09:40:34;;;;;;;;;;;28.30;51.90;;;;;;5132954;27;19946;-59
2021/07/05 09:43:01;;;;;;;;;;;28.30;51.80;;;;;;5131787;27;19923;-59
2021/07/05 09:45:30;;;;;;;;;;;28.30;51.80;;;;;;5130813;27;19923;-58
2021/07/05 09:48:27;;;;;;;;;;;28.30;51.80;;;;;;5133472;27;19927;-57
2021/07/05 09:51:01;;;;;;;;;;;28.30;51.70;;;;;;5029388;28;19948;-58
2021/07/05 09:53:28;;;;;;;;;;;28.30;51.70;;;;;;5030673;28;19932;-57
2021/07/05 09:56:14;;;;;;;;;;;28.30;51.70;;;;;;5029113;28;19963;-58
2021/07/05 09:58:41;;;;;;;;;;;28.30;51.70;;;;;;5026184;28;19925;-58
2021/07/05 10:01:08;;;;;;;;;;;28.30;51.70;;;;;;5029466;28;19925;-57
2021/07/05 10:03:36;;;;;;;;;;;28.30;51.80;;;;;;5031454;28;19968;-58
2021/07/05 10:06:20;;;;;;;;;;;28.30;51.70;;;;;;5030447;28;20012;-57
2021/07/05 10:08:48;;;;;;;;;;;28.30;51.70;;;;;;5031352;28;19948;-58
2021/07/05 10:11:21;;;;;;;;;;;28.30;51.70;;;;;;5029273;28;19929;-58
2021/07/05 10:13:48;;;;;;;;;;;28.30;51.70;;;;;;5018349;28;19925;-58
2021/07/05 10:16:15;;;;;;;;;;;28.30;51.70;;;;;;5023847;28;19987;-58
2021/07/05 10:18:44;;;;;;;;;;;28.30;51.70;;;;;;5029247;28;19960;-58
2021/07/05 10:21:12;;;;;;;;;;;28.40;51.70;;;;;;5029795;28;20373;-58
2021/07/05 10:23:39;;;;;;;;;;;28.40;51.70;;;;;;5029594;28;19985;-58
2021/07/05 10:26:06;;;;;;;;;;;28.40;51.50;;;;;;5027546;28;19925;-58
2021/07/05 10:28:33;;;;;;;;;;;28.40;51.50;;;;;;5123067;27;19963;-58
2021/07/05 10:31:01;;;;;;;;;;;28.50;51.40;;;;;;5125853;27;19924;-58
2021/07/05 10:33:28;;;;;;;;;;;28.50;51.40;;;;;;5118607;27;19934;-58
2021/07/05 10:35:56;;;;;;;;;;;28.50;51.30;;;;;;5130127;27;19923;-58
2021/07/05 10:38:34;;;;;;;;;;;28.50;51.30;;;;;;5131876;27;19924;-58
2021/07/05 10:41:22;;;;;;;;;;;28.50;51.20;;;;;;5130476;27;20329;-58
2021/07/05 10:43:58;;;;;;;;;;;28.50;51.30;;;;;;5130291;27;19924;-58
2021/07/05 10:46:44;;;;;;;;;;;28.50;51.30;;;;;;5130644;27;19924;-58
2021/07/05 10:49:30;;;;;;;;;;;28.50;51.30;;;;;;5130249;27;19924;-60
2021/07/05 10:52:02;;;;;;;;;;;28.50;51.30;;;;;;5123106;27;19959;-57
2021/07/05 10:54:47;;;;;;;;;;;28.50;51.20;;;;;;5101688;27;19931;-57
2021/07/05 10:57:16;;;;;;;;;;;28.60;51.20;;;;;;5130489;27;19927;-58
2021/07/05 10:59:44;;;;;;;;;;;28.60;51.20;;;;;;5132903;27;19993;-58
2021/07/05 11:02:33;;;;;;;;;;;28.60;51.10;;;;;;5123224;27;20358;-58
2021/07/05 11:05:27;;;;;;;;;;;28.60;51.10;;;;;;5117163;27;19923;-58
2021/07/05 11:07:55;;;;;;;;;;;28.60;51.20;;;;;;5130924;27;19972;-58
2021/07/05 11:10:27;;;;;;;;;;;28.50;51.10;;;;;;5130306;27;19943;-57
2021/07/05 11:12:58;;;;;;;;;;;28.50;51.20;;;;;;5132095;28;20313;-58
2021/07/05 11:15:43;;;;;;;;;;;28.50;51.20;;;;;;5129781;27;19924;-59
2021/07/05 11:18:10;;;;;;;;;;;28.40;51.20;;;;;;5129761;27;19976;-58
2021/07/05 11:20:37;;;;;;;;;;;28.40;51.30;;;;;;5130346;28;20014;-58
2021/07/05 11:23:04;;;;;;;;;;;28.40;51.40;;;;;;5129858;28;19978;-57
2021/07/05 11:25:31;;;;;;;;;;;28.40;51.40;;;;;;5129950;28;19959;-58
2021/07/05 11:28:01;;;;;;;;;;;28.40;51.40;;;;;;5131289;28;20026;-58
2021/07/05 11:30:28;;;;;;;;;;;28.40;51.50;;;;;;5131231;28;19962;-58
2021/07/05 11:32:58;;;;;;;;;;;28.30;51.40;;;;;;5131284;28;19930;-58
2021/07/05 11:35:28;;;;;;;;;;;28.30;51.40;;;;;;5127723;28;20014;-58
2021/07/05 11:37:56;;;;;;;;;;;28.40;51.40;;;;;;5121980;28;19976;-58
2021/07/05 11:40:38;;;;;;;;;;;28.40;51.40;;;;;;5132075;28;19970;-58
2021/07/05 11:43:05;;;;;;;;;;;28.40;51.40;;;;;;5133223;28;19924;-58
2021/07/05 11:45:42;;;;;;;;;;;28.40;51.30;;;;;;5132034;28;19954;-58
2021/07/05 11:48:10;;;;;;;;;;;28.40;51.20;;;;;;5126568;28;20380;-58
2021/07/05 11:50:38;;;;;;;;;;;28.50;51.20;;;;;;5119797;28;19923;-58
2021/07/05 11:53:05;;;;;;;;;;;28.50;51.10;;;;;;5130679;28;20298;-58
2021/07/05 11:55:34;;;;;;;;;;;28.50;51.10;;;;;;5125839;28;20352;-58
2021/07/05 11:58:02;;;;;;;;;;;28.60;51.00;;;;;;5117757;28;19923;-58
2021/07/05 12:00:31;;;;;;;;;;;28.60;51.00;;;;;;5133480;28;19958;-58
2021/07/05 12:03:02;;;;;;;;;;;28.60;51.00;;;;;;5131840;28;19924;-58
2021/07/05 12:05:29;;;;;;;;;;;28.60;50.90;;;;;;5130819;28;19932;-58
2021/07/05 12:08:02;;;;;;;;;;;28.60;50.80;;;;;;5131136;27;19923;-58
2021/07/05 12:10:29;;;;;;;;;;;28.70;50.80;;;;;;5134490;27;19975;-59
2021/07/05 12:13:12;;;;;;;;;;;28.70;50.70;;;;;;5135349;27;20014;-58
2021/07/05 12:15:41;;;;;;;;;;;28.70;50.70;;;;;;5118041;27;19997;-58
2021/07/05 12:18:14;;;;;;;;;;;28.70;50.60;;;;;;5134911;27;20278;-58
2021/07/05 12:20:40;;;;;;;;;;;28.70;50.60;;;;;;5134869;27;19923;-58
2021/07/05 12:23:12;;;;;;;;;;;28.80;50.60;;;;;;5134522;27;19957;-58
2021/07/05 12:25:39;;;;;;;;;;;28.70;50.50;;;;;;5134685;27;19924;-58
2021/07/05 12:28:13;;;;;;;;;;;28.80;50.50;;;;;;5135468;27;20014;-58
2021/07/05 12:30:47;;;;;;;;;;;28.80;50.50;;;;;;5136771;27;19923;-58
2021/07/05 12:33:16;;;;;;;;;;;28.80;50.50;;;;;;5136014;27;20329;-58
2021/07/05 12:35:43;;;;;;;;;;;28.80;50.50;;;;;;5122339;27;19988;-58
2021/07/05 12:38:11;;;;;;;;;;;28.80;50.40;;;;;;5136645;27;19965;-58
2021/07/05 12:40:38;;;;;;;;;;;28.80;50.40;;;;;;5117240;27;19973;-58
2021/07/05 12:43:12;;;;;;;;;;;28.80;50.40;;;;;;5133139;27;20018;-58
2021/07/05 12:45:43;;;;;;;;;;;28.80;50.40;;;;;;5134623;27;19968;-58
2021/07/05 12:48:13;;;;;;;;;;;28.80;50.40;;;;;;5132705;27;20343;-58
2021/07/05 12:50:40;;;;;;;;;;;28.80;50.40;;;;;;5134886;27;19988;-58
2021/07/05 12:53:18;;;;;;;;;;;28.80;50.40;;;;;;5133593;27;19969;-58
2021/07/05 12:55:50;;;;;;;;;;;28.80;50.40;;;;;;5133409;27;19985;-58
2021/07/05 12:58:30;;;;;;;;;;;28.70;50.40;;;;;;5136046;27;19930;-59
2021/07/05 13:00:57;;;;;;;;;;;28.70;50.40;;;;;;5134019;27;19923;-59
2021/07/05 13:03:24;;;;;;;;;;;28.70;50.30;;;;;;5134450;27;19927;-59
2021/07/05 13:06:01;;;;;;;;;;;28.80;50.30;;;;;;5131685;27;19923;-59
2021/07/05 13:08:29;;;;;;;;;;;28.80;50.20;;;;;;5135845;27;19970;-59
2021/07/05 13:11:05;;;;;;;;;;;28.80;50.10;;;;;;5135740;27;20387;-58
2021/07/05 13:13:36;;;;;;;;;;;28.80;50.20;;;;;;5133845;27;19924;-59
2021/07/05 13:16:14;;;;;;;;;;;28.80;50.20;;;;;;5132979;27;19977;-59
2021/07/05 13:18:42;;;;;;;;;;;28.70;50.20;;;;;;5132975;27;19927;-59
2021/07/05 13:21:09;;;;;;;;;;;28.70;50.30;;;;;;5131792;27;20291;-59
2021/07/05 13:23:41;;;;;;;;;;;28.70;50.40;;;;;;5133559;27;19923;-59
2021/07/05 13:26:08;;;;;;;;;;;28.60;50.50;;;;;;5123570;27;19924;-58
2021/07/05 13:28:46;;;;;;;;;;;28.60;50.60;;;;;;5127529;27;19923;-58
2021/07/05 13:31:29;;;;;;;;;;;28.50;50.60;;;;;;5133198;27;20358;-58
2021/07/05 13:33:56;;;;;;;;;;;28.50;50.70;;;;;;5131861;27;19929;-58
2021/07/05 13:36:23;;;;;;;;;;;28.40;50.70;;;;;;5104595;28;20080;-59
2021/07/05 13:38:50;;;;;;;;;;;28.40;50.80;;;;;;5126923;27;19955;-59
2021/07/05 13:41:17;;;;;;;;;;;28.40;50.90;;;;;;5124734;27;19950;-59
2021/07/05 13:43:48;;;;;;;;;;;28.30;50.90;;;;;;5123596;27;20010;-58
2021/07/05 13:46:15;;;;;;;;;;;28.30;51.00;;;;;;5133128;27;20017;-58
2021/07/05 13:48:43;;;;;;;;;;;28.30;51.00;;;;;;5132405;27;19923;-58
2021/07/05 13:51:13;;;;;;;;;;;28.30;51.10;;;;;;5133171;27;19930;-58
2021/07/05 13:53:44;;;;;;;;;;;28.30;51.10;;;;;;5133340;27;19963;-58
2021/07/05 13:56:14;;;;;;;;;;;28.30;51.10;;;;;;5133624;27;19924;-59
2021/07/05 13:58:49;;;;;;;;;;;28.30;51.20;;;;;;5133075;27;20020;-59
2021/07/05 14:01:17;;;;;;;;;;;28.30;51.30;;;;;;5131884;27;20378;-59
2021/07/05 14:03:45;;;;;;;;;;;28.30;51.30;;;;;;5132525;27;19963;-59
2021/07/05 14:06:13;;;;;;;;;;;28.20;51.20;;;;;;5133844;27;20014;-59
2021/07/05 14:08:44;;;;;;;;;;;28.20;51.30;;;;;;5132998;27;19924;-58
2021/07/05 14:11:12;;;;;;;;;;;28.20;51.30;;;;;;5115685;27;19923;-58
2021/07/05 14:13:40;;;;;;;;;;;28.20;51.30;;;;;;5130945;27;19955;-58
2021/07/05 14:16:09;;;;;;;;;;;28.20;51.30;;;;;;5133047;27;19924;-58
2021/07/05 14:18:40;;;;;;;;;;;28.20;51.30;;;;;;5115222;27;19940;-58
2021/07/05 14:21:08;;;;;;;;;;;28.20;51.30;;;;;;5097719;27;20015;-58
2021/07/05 14:23:35;;;;;;;;;;;28.20;51.20;;;;;;5113997;28;19924;-58
2021/07/05 14:26:03;;;;;;;;;;;28.20;51.20;;;;;;5132274;27;20006;-58